Time,TemperatureF,DewpointF,PressureIn,WindDirection,WindDirectionDegrees,WindSpeedMPH,WindSpeedGustMPH,Humidity,HourlyPrecipIn,Conditions,Clouds,dailyrainin,SoftwareType,DateUTC
2013-05-23 00:02:00,51.0,50.0,-100.00,NNE,30,2.0,9.0,99,-99.99,,,-99.99,,2013-05-23 05:02:00,
2013-05-23 00:11:00,51.0,50.0,-100.00,NNE,30,2.0,9.0,99,-99.99,,,-99.99,,2013-05-23 05:11:00,
2013-05-23 00:43:00,51.0,50.0,-100.00,NNE,25,1.0,14.0,98,-99.99,,,-99.99,,2013-05-23 05:43:00,
2013-05-23 00:52:00,51.0,50.0,-100.00,NNE,25,1.0,14.0,98,-99.99,,,-99.99,,2013-05-23 05:52:00,
2013-05-23 01:02:00,51.0,50.0,-100.00,NNE,25,1.0,14.0,98,-99.99,,,-99.99,,2013-05-23 06:02:00,
2013-05-23 01:12:00,51.0,50.0,-100.00,NNE,25,1.0,14.0,98,-99.99,,,-99.99,,2013-05-23 06:12:00,
2013-05-23 01:32:00,51.0,50.0,-100.00,NNE,25,1.0,7.0,96,-99.99,,,-99.99,,2013-05-23 06:32:00,
2013-05-23 01:42:00,51.0,48.0,-100.00,NE,35,4.0,11.0,91,-99.99,,,-99.99,,2013-05-23 06:42:00,
2013-05-23 01:52:00,51.0,48.0,-100.00,NE,35,4.0,11.0,91,-99.99,,,-99.99,,2013-05-23 06:52:00,
2013-05-23 02:02:00,51.0,48.0,-100.00,NE,35,4.0,11.0,91,-99.99,,,-99.99,,2013-05-23 07:02:00,
2013-05-23 02:11:00,51.0,48.0,-100.00,NE,35,4.0,11.0,91,-99.99,,,-99.99,,2013-05-23 07:11:00,
2013-05-23 02:32:00,49.0,45.0,-100.00,NNE,15,3.0,11.0,83,-99.99,,,-99.99,,2013-05-23 07:32:00,
2013-05-23 02:42:00,49.0,45.0,-100.00,NNE,15,3.0,11.0,83,-99.99,,,-99.99,,2013-05-23 07:42:00,
2013-05-23 02:59:00,49.0,45.0,-100.00,NNE,15,3.0,11.0,83,-99.99,,,-99.99,,2013-05-23 07:59:00,
2013-05-23 03:11:00,49.0,45.0,-100.00,NNE,15,3.0,11.0,83,-99.99,,,-99.99,,2013-05-23 08:11:00,
2013-05-23 03:32:00,47.0,42.0,-100.00,North,0,2.0,12.0,85,-99.99,,,-99.99,,2013-05-23 08:32:00,
2013-05-23 03:42:00,47.0,42.0,-100.00,North,0,2.0,12.0,85,-99.99,,,-99.99,,2013-05-23 08:42:00,
2013-05-23 03:52:00,47.0,42.0,-100.00,North,0,2.0,12.0,85,-99.99,,,-99.99,,2013-05-23 08:52:00,
2013-05-23 04:01:00,47.0,42.0,-100.00,North,0,2.0,12.0,85,-99.99,,,-99.99,,2013-05-23 09:01:00,
2013-05-23 04:11:00,47.0,42.0,-100.00,North,0,2.0,12.0,85,-99.99,,,-99.99,,2013-05-23 09:11:00,
2013-05-23 04:33:00,45.0,40.0,-100.00,North,10,2.0,13.0,84,-99.99,,,-99.99,,2013-05-23 09:33:00,
2013-05-23 04:42:00,45.0,40.0,-100.00,North,10,2.0,13.0,84,-99.99,,,-99.99,,2013-05-23 09:42:00,
2013-05-23 04:53:00,45.0,40.0,-100.00,North,10,2.0,13.0,84,-99.99,,,-99.99,,2013-05-23 09:53:00,
2013-05-23 05:02:00,45.0,40.0,-100.00,North,10,2.0,13.0,84,-99.99,,,-99.99,,2013-05-23 10:02:00,
2013-05-23 05:12:00,45.0,40.0,-100.00,North,10,2.0,13.0,84,-99.99,,,-99.99,,2013-05-23 10:12:00,
2013-05-23 05:32:00,43.0,39.0,-100.00,NNW,340,4.0,9.0,87,-99.99,,,-99.99,,2013-05-23 10:32:00,
2013-05-23 05:42:00,43.0,39.0,-100.00,NNW,340,4.0,9.0,87,-99.99,,,-99.99,,2013-05-23 10:42:00,
2013-05-23 05:52:00,43.0,39.0,-100.00,NNW,340,4.0,9.0,87,-99.99,,,-99.99,,2013-05-23 10:52:00,
2013-05-23 06:02:00,43.0,39.0,-100.00,NNW,340,4.0,9.0,87,-99.99,,,-99.99,,2013-05-23 11:02:00,
2013-05-23 06:11:00,43.0,39.0,-100.00,NNW,340,4.0,9.0,87,-99.99,,,-99.99,,2013-05-23 11:11:00,
2013-05-23 06:32:00,42.0,38.0,-100.00,NNW,345,2.0,11.0,86,-99.99,,,-99.99,,2013-05-23 11:32:00,
2013-05-23 06:42:00,42.0,38.0,-100.00,NNW,345,2.0,11.0,86,-99.99,,,-99.99,,2013-05-23 11:42:00,
2013-05-23 06:52:00,42.0,38.0,-100.00,NNW,345,2.0,11.0,86,-99.99,,,-99.99,,2013-05-23 11:52:00,
2013-05-23 07:01:00,42.0,38.0,-100.00,NNW,345,2.0,11.0,86,-99.99,,,-99.99,,2013-05-23 12:01:00,
2013-05-23 07:11:00,42.0,38.0,-100.00,NNW,345,2.0,11.0,86,-99.99,,,-99.99,,2013-05-23 12:11:00,
2013-05-23 07:42:00,43.0,37.0,-100.00,North,10,4.0,14.0,80,-99.99,,,-99.99,,2013-05-23 12:42:00,
2013-05-23 07:52:00,43.0,37.0,-100.00,North,10,4.0,14.0,80,-99.99,,,-99.99,,2013-05-23 12:52:00,
2013-05-23 08:01:00,43.0,37.0,-100.00,North,10,4.0,14.0,80,-99.99,,,-99.99,,2013-05-23 13:01:00,
2013-05-23 08:11:00,43.0,37.0,-100.00,North,10,4.0,14.0,80,-99.99,,,-99.99,,2013-05-23 13:11:00,
2013-05-23 08:32:00,45.0,37.0,-100.00,NNE,15,4.0,11.0,72,-99.99,,,-99.99,,2013-05-23 13:32:00,
2013-05-23 08:42:00,45.0,37.0,-100.00,NNE,15,4.0,11.0,72,-99.99,,,-99.99,,2013-05-23 13:42:00,
2013-05-23 08:52:00,45.0,37.0,-100.00,NNE,15,4.0,11.0,72,-99.99,,,-99.99,,2013-05-23 13:52:00,
2013-05-23 09:02:00,45.0,37.0,-100.00,NNE,15,4.0,11.0,72,-99.99,,,-99.99,,2013-05-23 14:02:00,
2013-05-23 09:11:00,45.0,37.0,-100.00,NNE,15,4.0,11.0,72,-99.99,,,-99.99,,2013-05-23 14:11:00,
2013-05-23 11:43:00,55.0,32.0,-100.00,NE,35,4.0,17.0,41,-99.99,,,-99.99,,2013-05-23 16:43:00,
2013-05-23 11:52:00,55.0,32.0,-100.00,NE,35,4.0,17.0,41,-99.99,,,-99.99,,2013-05-23 16:52:00,
2013-05-23 12:03:00,55.0,32.0,-100.00,NE,35,4.0,17.0,41,-99.99,,,-99.99,,2013-05-23 17:03:00,
2013-05-23 12:11:00,55.0,32.0,-100.00,NE,35,4.0,17.0,41,-99.99,,,-99.99,,2013-05-23 17:11:00,
2013-05-23 12:43:00,57.0,29.0,-100.00,North,0,5.0,19.0,34,-99.99,,,-99.99,,2013-05-23 17:43:00,
2013-05-23 12:53:00,57.0,29.0,-100.00,North,0,5.0,19.0,34,-99.99,,,-99.99,,2013-05-23 17:53:00,
2013-05-23 13:01:00,57.0,29.0,-100.00,North,0,5.0,19.0,34,-99.99,,,-99.99,,2013-05-23 18:01:00,
2013-05-23 13:11:00,57.0,29.0,-100.00,North,0,5.0,19.0,34,-99.99,,,-99.99,,2013-05-23 18:11:00,
2013-05-23 13:42:00,61.0,32.0,-100.00,North,0,4.0,16.0,33,-99.99,,,-99.99,,2013-05-23 18:42:00,
2013-05-23 13:52:00,61.0,32.0,-100.00,North,0,4.0,16.0,33,-99.99,,,-99.99,,2013-05-23 18:52:00,
2013-05-23 14:01:00,61.0,32.0,-100.00,North,0,4.0,16.0,33,-99.99,,,-99.99,,2013-05-23 19:01:00,
2013-05-23 14:11:00,61.0,32.0,-100.00,North,0,4.0,16.0,33,-99.99,,,-99.99,,2013-05-23 19:11:00,
2013-05-23 14:42:00,63.0,31.0,-100.00,NNE,25,4.0,14.0,30,-99.99,,,-99.99,,2013-05-23 19:42:00,
2013-05-23 14:52:00,63.0,31.0,-100.00,NNE,25,4.0,14.0,30,-99.99,,,-99.99,,2013-05-23 19:52:00,
2013-05-23 15:02:00,63.0,31.0,-100.00,NNE,25,4.0,14.0,30,-99.99,,,-99.99,,2013-05-23 20:02:00,
2013-05-23 15:11:00,63.0,31.0,-100.00,NNE,25,4.0,14.0,30,-99.99,,,-99.99,,2013-05-23 20:11:00,
2013-05-23 15:42:00,65.0,31.0,-100.00,NNE,25,4.0,11.0,28,-99.99,,,-99.99,,2013-05-23 20:42:00,
2013-05-23 15:52:00,65.0,31.0,-100.00,NNE,25,4.0,11.0,28,-99.99,,,-99.99,,2013-05-23 20:52:00,
2013-05-23 16:01:00,65.0,31.0,-100.00,NNE,25,4.0,11.0,28,-99.99,,,-99.99,,2013-05-23 21:01:00,
2013-05-23 16:11:00,65.0,31.0,-100.00,NNE,25,4.0,11.0,28,-99.99,,,-99.99,,2013-05-23 21:11:00,
2013-05-23 16:33:00,64.0,29.0,-100.00,NE,50,3.0,16.0,27,-99.99,,,-99.99,,2013-05-23 21:33:00,
2013-05-23 16:43:00,64.0,29.0,-100.00,NE,50,3.0,16.0,27,-99.99,,,-99.99,,2013-05-23 21:43:00,
2013-05-23 16:53:00,64.0,29.0,-100.00,NE,50,3.0,16.0,27,-99.99,,,-99.99,,2013-05-23 21:53:00,
2013-05-23 17:03:00,64.0,29.0,-100.00,NE,50,3.0,16.0,27,-99.99,,,-99.99,,2013-05-23 22:03:00,
2013-05-23 17:12:00,64.0,29.0,-100.00,NE,50,3.0,16.0,27,-99.99,,,-99.99,,2013-05-23 22:12:00,
2013-05-23 19:42:00,58.0,26.0,-100.00,North,10,4.0,11.0,29,-99.99,,,-99.99,,2013-05-24 00:42:00,
2013-05-23 19:52:00,58.0,26.0,-100.00,North,10,4.0,11.0,29,-99.99,,,-99.99,,2013-05-24 00:52:00,
2013-05-23 20:01:00,58.0,26.0,-100.00,North,10,4.0,11.0,29,-99.99,,,-99.99,,2013-05-24 01:01:00,
2013-05-23 20:12:00,58.0,26.0,-100.00,North,10,4.0,11.0,29,-99.99,,,-99.99,,2013-05-24 01:12:00,